createdAt,value
2023-05-12T00:02:16.337Z,3.75
2023-05-12T00:04:43.146Z,4.47
2023-05-12T00:07:09.818Z,3.58
2023-05-12T00:09:36.463Z,4.10
2023-05-12T00:12:03.711Z,4.35
2023-05-12T00:14:30.416Z,4.07
2023-05-12T00:47:23.095Z,4.40
2023-05-12T00:49:49.877Z,4.45
2023-05-12T00:52:16.501Z,4.30
2023-05-12T00:54:44.256Z,4.40
2023-05-12T00:57:11.581Z,4.95
2023-05-12T00:59:38.221Z,4.90
2023-05-12T01:02:05.812Z,4.70
2023-05-12T01:04:33.466Z,4.30
2023-05-12T01:07:22.008Z,5.30
2023-05-12T01:09:53.441Z,5.55
2023-05-12T01:12:21.373Z,5.75
2023-05-12T01:14:48.269Z,5.65
2023-05-12T01:17:19.479Z,5.30
2023-05-12T01:19:52.572Z,6.20
2023-05-12T01:22:19.939Z,5.55
2023-05-12T01:24:59.429Z,5.80
2023-05-12T01:27:28.350Z,5.80
2023-05-12T01:29:58.479Z,5.85
2023-05-12T01:32:25.421Z,5.95
2023-05-12T01:34:52.506Z,5.53
2023-05-12T01:37:19.473Z,5.97
2023-05-12T01:39:46.109Z,5.63
2023-05-12T01:42:13.042Z,5.25
2023-05-12T01:44:39.725Z,5.40
2023-05-12T01:47:09.780Z,4.47
2023-05-12T01:49:36.905Z,4.63
2023-05-12T01:52:03.861Z,4.78
2023-05-12T01:54:30.738Z,4.10
2023-05-12T01:56:57.426Z,4.03
2023-05-12T01:59:24.194Z,4.28
2023-05-12T02:01:50.981Z,4.32
2023-05-12T02:04:17.718Z,3.63
2023-05-12T02:06:44.395Z,4.03
2023-05-12T02:09:11.029Z,3.80
2023-05-12T02:11:37.679Z,3.63
2023-05-12T02:14:04.579Z,3.40
2023-05-12T02:16:31.258Z,3.20
2023-05-12T02:18:57.978Z,3.22
2023-05-12T02:21:24.686Z,2.67
2023-05-12T02:23:51.314Z,2.70
2023-05-12T02:26:19.400Z,2.55
2023-05-12T02:28:45.992Z,2.47
2023-05-12T02:31:12.621Z,2.20
2023-05-12T02:33:39.225Z,2.20
2023-05-12T02:36:06.315Z,2.17
2023-05-12T02:38:33.000Z,2.15
2023-05-12T02:40:59.703Z,1.58
2023-05-12T02:43:26.338Z,2.00
2023-05-12T02:45:54.085Z,2.42
2023-05-12T02:48:20.769Z,1.83
2023-05-12T02:50:47.382Z,1.90
2023-05-12T02:53:14.055Z,1.67
2023-05-12T02:55:40.798Z,2.15
2023-05-12T02:58:07.536Z,1.85
2023-05-12T03:00:34.232Z,1.98
2023-05-12T03:03:01.028Z,2.00
2023-05-12T03:05:27.850Z,1.92
2023-05-12T03:07:57.588Z,1.90
2023-05-12T03:10:24.292Z,2.30
2023-05-12T03:12:50.962Z,2.60
2023-05-12T03:15:17.749Z,2.88
2023-05-12T03:17:44.483Z,3.05
2023-05-12T03:20:12.186Z,3.20
2023-05-12T03:22:39.212Z,3.58
2023-05-12T03:25:07.151Z,3.95
2023-05-12T03:27:33.808Z,5.45
2023-05-12T03:30:05.129Z,4.82
2023-05-12T03:32:31.885Z,5.72
2023-05-12T03:34:58.625Z,6.18
2023-05-12T03:37:25.241Z,6.45
2023-05-12T03:39:51.957Z,6.53
2023-05-12T03:42:19.208Z,7.78
2023-05-12T03:44:45.899Z,7.28
2023-05-12T03:47:13.676Z,9.07
2023-05-12T03:49:40.487Z,8.38
2023-05-12T03:52:07.423Z,9.15
2023-05-12T03:54:35.096Z,9.32
2023-05-12T03:57:03.117Z,9.98
2023-05-12T03:59:32.854Z,9.73
2023-05-12T04:01:59.532Z,10.70
2023-05-12T04:04:26.433Z,10.30
2023-05-12T04:06:53.090Z,12.07
2023-05-12T04:09:21.271Z,11.60
2023-05-12T04:11:47.940Z,10.93
2023-05-12T04:14:14.545Z,11.35
2023-05-12T04:16:41.358Z,12.20
2023-05-12T04:19:08.167Z,11.23
2023-05-12T04:21:35.273Z,13.10
2023-05-12T04:24:01.916Z,12.07
2023-05-12T04:26:28.720Z,12.93
2023-05-12T04:28:55.400Z,13.25
2023-05-12T04:31:22.100Z,14.27
2023-05-12T04:33:48.808Z,13.45
2023-05-12T04:36:15.648Z,13.32
2023-05-12T04:38:42.393Z,13.52
2023-05-12T04:41:09.202Z,14.70
2023-05-12T04:46:05.712Z,14.70
2023-05-12T04:48:32.516Z,17.45
2023-05-12T04:51:00.078Z,16.83
2023-05-12T04:53:27.635Z,15.40
2023-05-12T04:55:54.411Z,15.55
2023-05-12T04:58:21.100Z,17.02
2023-05-12T05:00:47.738Z,16.33
2023-05-12T05:03:14.482Z,16.40
2023-05-12T05:05:41.204Z,17.05
2023-05-12T05:08:07.890Z,16.83
2023-05-12T05:10:34.601Z,18.20
2023-05-12T05:13:01.255Z,18.20
2023-05-12T05:15:27.912Z,19.15
2023-05-12T05:17:54.619Z,18.77
2023-05-12T05:20:27.617Z,20.02
2023-05-12T05:22:55.508Z,20.52
2023-05-12T05:25:22.195Z,19.98
2023-05-12T05:27:48.994Z,18.42
2023-05-12T05:30:15.772Z,21.95
2023-05-12T05:32:42.399Z,21.52
2023-05-12T05:35:09.294Z,20.15
2023-05-12T05:37:35.956Z,19.85
2023-05-12T05:40:02.624Z,20.02
2023-05-12T05:42:29.265Z,22.65
2023-05-12T05:44:56.428Z,21.50
2023-05-12T05:47:23.211Z,20.92
2023-05-12T05:49:50.065Z,21.38
2023-05-12T05:52:16.912Z,21.92
2023-05-12T05:54:43.538Z,21.08
2023-05-12T05:57:10.146Z,20.92
2023-05-12T05:59:36.867Z,18.58
2023-05-12T06:02:03.779Z,21.27
2023-05-12T06:04:30.655Z,20.77
2023-05-12T06:06:57.387Z,18.55
2023-05-12T06:09:24.129Z,18.20
2023-05-12T06:11:50.798Z,20.63
2023-05-12T06:14:17.495Z,19.83
2023-05-12T06:16:44.307Z,21.15
2023-05-12T06:19:11.874Z,22.20
2023-05-12T06:21:39.059Z,22.00
2023-05-12T06:24:05.881Z,21.48
2023-05-12T06:26:32.710Z,20.77
2023-05-12T06:28:59.468Z,20.42
2023-05-12T06:31:26.342Z,21.92
2023-05-12T06:33:53.068Z,22.60
2023-05-12T06:36:19.736Z,21.58
2023-05-12T06:38:46.341Z,20.35
2023-05-12T06:41:13.030Z,21.48
2023-05-12T06:43:39.715Z,20.35
2023-05-12T06:46:06.930Z,20.55
2023-05-12T06:48:33.638Z,21.83
2023-05-12T06:51:00.300Z,20.58
2023-05-12T06:53:27.281Z,20.50
2023-05-12T06:55:55.108Z,21.00
2023-05-12T06:58:22.104Z,21.33
2023-05-12T07:00:48.935Z,20.40
2023-05-12T07:03:15.755Z,20.42
2023-05-12T07:05:42.687Z,19.77
2023-05-12T07:08:09.438Z,21.17
2023-05-12T07:10:37.931Z,22.42
2023-05-12T07:13:04.750Z,20.75
2023-05-12T07:15:32.759Z,20.60
2023-05-12T07:17:59.800Z,21.95
2023-05-12T07:20:26.475Z,20.98
2023-05-12T07:22:54.763Z,24.45
2023-05-12T07:25:21.947Z,19.73
2023-05-12T07:27:49.895Z,19.65
2023-05-12T07:30:17.145Z,23.13
2023-05-12T07:32:43.853Z,21.85
2023-05-12T07:35:10.590Z,21.85
2023-05-12T07:37:37.496Z,20.20
2023-05-12T07:40:04.829Z,21.17
2023-05-12T07:42:31.592Z,19.50
2023-05-12T07:44:58.370Z,17.88
2023-05-12T07:47:25.161Z,20.15
2023-05-12T07:49:51.922Z,18.58
2023-05-12T07:52:18.542Z,18.63
2023-05-12T07:54:45.224Z,19.55
2023-05-12T07:57:12.929Z,19.95
2023-05-12T07:59:40.193Z,17.63
2023-05-12T08:02:07.322Z,18.55
2023-05-12T08:04:34.238Z,18.45
2023-05-12T08:07:01.204Z,18.08
2023-05-12T08:09:27.868Z,18.45
2023-05-12T08:11:54.472Z,16.27
2023-05-12T08:14:22.555Z,14.88
2023-05-12T08:16:49.371Z,17.67
2023-05-12T08:19:16.113Z,17.27
2023-05-12T08:21:42.835Z,18.95
2023-05-12T08:24:09.880Z,18.40
2023-05-12T08:26:36.489Z,16.52
2023-05-12T08:29:04.637Z,14.57
2023-05-12T08:31:31.816Z,14.60
2023-05-12T08:34:09.154Z,15.68
2023-05-12T08:36:38.453Z,16.27
2023-05-12T08:39:05.373Z,14.65
2023-05-12T08:41:45.002Z,13.90
2023-05-12T08:44:12.824Z,12.35
2023-05-12T08:46:40.023Z,13.70
2023-05-12T08:49:09.764Z,12.10
2023-05-12T08:51:38.055Z,12.57
2023-05-12T08:54:05.559Z,12.57
2023-05-12T08:59:05.312Z,12.07
2023-05-12T09:01:36.909Z,12.30
2023-05-12T09:04:07.045Z,11.07
2023-05-12T09:06:34.439Z,12.88
2023-05-12T09:09:01.258Z,10.63
2023-05-12T09:11:27.908Z,11.55
2023-05-12T09:14:04.152Z,10.73
2023-05-12T09:16:35.806Z,10.35
2023-05-12T09:19:04.005Z,10.18
2023-05-12T09:21:32.325Z,10.73
2023-05-12T09:24:07.525Z,10.10
2023-05-12T09:26:52.227Z,8.57
2023-05-12T09:29:30.649Z,9.43
2023-05-12T09:32:02.713Z,8.57
2023-05-12T09:34:31.598Z,7.33
2023-05-12T09:37:01.082Z,7.90
2023-05-12T09:39:28.826Z,8.45
2023-05-12T09:41:55.748Z,8.50
2023-05-12T09:44:23.694Z,8.88
2023-05-12T09:46:51.423Z,7.85
2023-05-12T09:49:23.870Z,8.00
2023-05-12T09:51:58.434Z,7.53
2023-05-12T09:54:29.746Z,6.90
2023-05-12T09:57:01.544Z,6.65
2023-05-12T09:59:33.174Z,6.40
2023-05-12T10:02:01.678Z,5.60
2023-05-12T10:04:32.814Z,5.90
2023-05-12T10:07:00.010Z,5.00
2023-05-12T10:09:34.012Z,5.18
2023-05-12T10:12:03.098Z,5.20
2023-05-12T10:14:31.021Z,4.63
2023-05-12T10:16:59.194Z,5.07
2023-05-12T10:19:26.815Z,4.60
2023-05-12T10:21:55.466Z,4.68
2023-05-12T10:24:24.906Z,5.18
2023-05-12T10:26:53.040Z,4.68
2023-05-12T10:29:20.296Z,3.55
2023-05-12T10:31:47.416Z,4.90
2023-05-12T10:34:21.544Z,5.25
2023-05-12T10:36:50.212Z,4.45
2023-05-12T10:39:17.230Z,5.13
2023-05-12T10:41:44.184Z,5.00
2023-05-12T10:44:11.255Z,4.35
2023-05-12T10:46:38.088Z,5.13
2023-05-12T10:49:10.181Z,4.50
2023-05-12T10:51:43.010Z,4.40
2023-05-12T10:54:11.910Z,3.92
2023-05-12T10:56:38.748Z,3.58
2023-05-12T10:59:10.260Z,4.00
2023-05-12T11:01:37.866Z,3.63
2023-05-12T11:04:16.001Z,3.40
2023-05-12T11:06:45.036Z,3.10
2023-05-12T11:09:13.300Z,3.42
2023-05-12T11:11:40.563Z,3.88
2023-05-12T11:14:08.259Z,4.18
2023-05-12T11:16:41.193Z,3.83
2023-05-12T11:19:07.975Z,3.15
2023-05-12T11:21:35.120Z,3.53
2023-05-12T11:24:03.028Z,3.42
2023-05-12T11:26:30.383Z,3.30
2023-05-12T11:28:58.254Z,2.83
2023-05-12T11:31:25.681Z,2.70
2023-05-12T11:34:11.904Z,3.13
2023-05-12T11:36:43.833Z,2.97
2023-05-12T11:42:12.871Z,3.88
2023-05-12T11:44:47.780Z,3.13
2023-05-12T11:47:15.750Z,2.42
2023-05-12T11:49:47.940Z,2.80
2023-05-12T11:52:15.215Z,3.00
2023-05-12T11:54:52.619Z,3.55
2023-05-12T11:57:30.294Z,2.70
2023-05-12T12:00:02.323Z,2.63
2023-05-12T12:02:29.257Z,2.75
2023-05-12T12:04:56.791Z,3.03
2023-05-12T12:07:36.678Z,2.92
2023-05-12T12:10:17.367Z,2.58
2023-05-12T12:12:45.390Z,2.67
2023-05-12T12:15:13.041Z,2.70
2023-05-12T12:17:40.607Z,2.45
2023-05-12T12:20:09.024Z,2.92
2023-05-12T12:22:36.056Z,3.30
2023-05-12T12:25:03.752Z,2.85
2023-05-12T12:27:30.595Z,3.40
2023-05-12T12:29:57.423Z,5.20
2023-05-12T12:32:24.292Z,5.95
2023-05-12T12:34:51.549Z,4.88
2023-05-12T12:37:18.225Z,5.00
2023-05-12T12:39:44.872Z,5.10
2023-05-12T12:42:11.548Z,4.70
2023-05-12T12:44:38.236Z,5.65
2023-05-12T12:47:05.233Z,4.90
2023-05-12T12:49:32.017Z,4.53
2023-05-12T12:51:58.722Z,5.00
2023-05-12T12:54:31.302Z,4.57
2023-05-12T12:56:58.421Z,4.68
2023-05-12T12:59:25.106Z,4.97
2023-05-12T13:01:52.170Z,4.65
2023-05-12T13:04:22.643Z,4.85
2023-05-12T13:06:49.607Z,5.03
2023-05-12T13:09:19.050Z,5.35
2023-05-12T13:11:47.191Z,4.55
2023-05-12T13:14:13.917Z,4.60
2023-05-12T13:16:40.567Z,4.97
2023-05-12T13:19:08.152Z,5.10
2023-05-12T13:21:35.023Z,4.78
2023-05-12T13:24:01.813Z,4.95
2023-05-12T13:26:30.931Z,4.90
2023-05-12T13:28:57.722Z,5.70
2023-05-12T13:31:24.512Z,5.30
2023-05-12T13:33:51.148Z,5.32
2023-05-12T13:36:17.837Z,5.07
2023-05-12T13:38:45.751Z,4.75
2023-05-12T13:41:12.393Z,5.35
2023-05-12T13:43:39.351Z,4.38
2023-05-12T13:46:06.083Z,4.47
2023-05-12T13:48:32.718Z,5.47
2023-05-12T13:50:59.364Z,5.07
2023-05-12T13:53:25.941Z,4.88
2023-05-12T13:55:52.604Z,5.30
2023-05-12T13:58:19.185Z,4.68
2023-05-12T14:00:47.860Z,5.13
2023-05-12T14:03:14.559Z,4.60
2023-05-12T14:05:41.177Z,4.63
2023-05-12T14:08:08.051Z,4.60
2023-05-12T14:10:35.560Z,4.32
2023-05-12T14:13:02.198Z,3.97
2023-05-12T14:15:40.643Z,4.25
2023-05-12T14:18:14.893Z,4.32
2023-05-12T14:20:41.915Z,4.40
2023-05-12T14:23:08.609Z,4.25
2023-05-12T14:25:35.332Z,4.32
2023-05-12T14:28:02.598Z,3.70
2023-05-12T14:30:29.758Z,3.72
2023-05-12T14:32:56.518Z,4.05
2023-05-12T14:35:27.367Z,4.50
2023-05-12T14:37:54.417Z,4.25
2023-05-12T14:40:21.135Z,4.28
2023-05-12T14:42:48.070Z,4.93
2023-05-12T14:45:14.910Z,4.20
2023-05-12T14:47:41.638Z,4.40
2023-05-12T14:50:08.674Z,5.00
2023-05-12T14:52:38.323Z,4.95
2023-05-12T14:55:12.011Z,4.82
2023-05-12T14:57:39.771Z,3.97
2023-05-12T15:00:10.850Z,3.78
2023-05-12T15:02:38.734Z,4.93
2023-05-12T15:05:09.753Z,5.07
2023-05-12T15:07:36.602Z,4.80
2023-05-12T15:10:04.139Z,3.65
2023-05-12T15:12:31.587Z,5.03
2023-05-12T15:15:01.052Z,4.07
2023-05-12T15:17:30.764Z,4.07
2023-05-12T15:19:57.675Z,4.10
2023-05-12T15:22:24.431Z,3.95
2023-05-12T15:24:51.019Z,3.95
2023-05-12T15:27:17.626Z,4.45
2023-05-12T15:29:44.242Z,4.65
2023-05-12T15:32:11.057Z,4.25
2023-05-12T15:34:37.733Z,4.05
2023-05-12T15:37:04.572Z,4.70
2023-05-12T15:39:31.541Z,3.63
2023-05-12T15:41:58.917Z,4.03
2023-05-12T15:44:25.690Z,3.60
2023-05-12T15:46:52.389Z,3.88
2023-05-12T15:49:19.115Z,3.88
2023-05-12T15:51:45.833Z,3.78
2023-05-12T15:54:12.510Z,3.72
2023-05-12T15:56:39.559Z,3.38
2023-05-12T15:59:07.322Z,3.70
2023-05-12T16:01:34.065Z,3.00
2023-05-12T16:04:01.146Z,3.17
2023-05-12T16:06:28.006Z,4.43
2023-05-12T16:08:54.789Z,4.38
2023-05-12T16:11:21.481Z,6.28
2023-05-12T16:13:48.207Z,7.40
2023-05-12T16:16:15.107Z,6.30
2023-05-12T16:18:42.932Z,6.53
2023-05-12T16:21:09.651Z,7.68
2023-05-12T16:23:36.291Z,7.72
2023-05-12T16:26:03.026Z,8.15
2023-05-12T16:28:29.708Z,6.80
2023-05-12T16:30:56.500Z,7.00
2023-05-12T16:33:23.444Z,6.82
2023-05-12T16:35:50.604Z,6.68
2023-05-12T16:38:17.255Z,7.95
2023-05-12T16:40:44.013Z,7.57
2023-05-12T16:43:10.706Z,8.98
2023-05-12T16:45:37.429Z,10.10
2023-05-12T16:48:04.884Z,9.27
2023-05-12T16:50:32.126Z,10.00
2023-05-12T16:52:58.810Z,7.32
2023-05-12T16:55:25.671Z,8.35
2023-05-12T16:57:52.269Z,8.30
2023-05-12T17:00:19.298Z,7.50
2023-05-12T17:02:46.002Z,7.07
2023-05-12T17:05:12.677Z,7.03
2023-05-12T17:07:39.301Z,7.80
2023-05-12T17:10:06.664Z,7.28
2023-05-12T17:12:33.356Z,7.18
2023-05-12T17:15:07.672Z,6.13
2023-05-12T17:17:35.442Z,6.57
2023-05-12T17:20:02.587Z,7.65
2023-05-12T17:22:30.869Z,6.88
2023-05-12T17:24:57.512Z,7.40
2023-05-12T17:27:24.201Z,7.38
2023-05-12T17:29:50.864Z,6.60
2023-05-12T17:32:17.491Z,6.47
2023-05-12T17:34:44.164Z,5.68
2023-05-12T17:37:10.798Z,6.38
2023-05-12T17:39:40.446Z,6.28
2023-05-12T17:42:07.341Z,7.00
2023-05-12T17:44:33.924Z,6.47
2023-05-12T17:47:00.720Z,6.35
2023-05-12T17:49:27.580Z,7.38
2023-05-12T17:51:54.936Z,7.05
2023-05-12T17:54:21.635Z,7.15
2023-05-12T17:56:48.527Z,6.82
2023-05-12T17:59:15.149Z,7.10
2023-05-12T18:01:41.752Z,6.57
2023-05-12T18:04:08.556Z,6.78
2023-05-12T18:06:35.513Z,7.38
2023-05-12T18:09:02.670Z,8.85
2023-05-12T18:11:29.602Z,8.32
2023-05-12T18:13:56.541Z,9.00
2023-05-12T18:16:29.140Z,8.60
2023-05-12T18:18:56.429Z,10.50
2023-05-12T18:21:23.167Z,10.48
2023-05-12T18:23:49.812Z,9.00
2023-05-12T18:26:16.414Z,10.00
2023-05-12T18:28:43.079Z,9.63
2023-05-12T18:31:15.866Z,9.20
2023-05-12T18:33:45.982Z,9.40
2023-05-12T18:36:12.926Z,10.05
2023-05-12T18:38:39.931Z,9.68
2023-05-12T18:41:07.154Z,9.73
2023-05-12T18:43:34.815Z,9.75
2023-05-12T18:46:01.888Z,9.57
2023-05-12T18:48:28.626Z,9.70
2023-05-12T18:50:56.258Z,9.80
2023-05-12T18:53:23.062Z,9.07
2023-05-12T18:55:50.212Z,9.50
2023-05-12T18:58:17.324Z,8.85
2023-05-12T19:00:44.978Z,9.30
2023-05-12T19:03:11.744Z,9.48
2023-05-12T19:05:43.035Z,8.93
2023-05-12T19:08:10.730Z,8.88
2023-05-12T19:10:39.463Z,8.73
2023-05-12T19:13:06.820Z,8.25
2023-05-12T19:15:33.418Z,8.52
2023-05-12T19:18:00.298Z,7.63
2023-05-12T19:20:28.088Z,8.10
2023-05-12T19:22:54.715Z,7.90
2023-05-12T19:25:21.842Z,7.90
2023-05-12T19:27:48.809Z,7.32
2023-05-12T19:30:15.463Z,8.48
2023-05-12T19:32:42.762Z,9.07
2023-05-12T19:35:12.760Z,9.38
2023-05-12T19:37:40.136Z,10.07
2023-05-12T19:40:07.522Z,9.48
2023-05-12T19:42:36.124Z,10.05
2023-05-12T19:45:03.051Z,9.45
2023-05-12T19:47:29.996Z,9.68
2023-05-12T19:49:56.999Z,9.73
2023-05-12T19:52:24.713Z,8.18
2023-05-12T19:54:52.671Z,9.98
2023-05-12T19:57:19.827Z,9.05
2023-05-12T19:59:46.565Z,9.50
2023-05-12T20:02:14.388Z,9.30
2023-05-12T20:04:41.116Z,9.68
2023-05-12T20:07:07.749Z,9.98
2023-05-12T20:09:34.349Z,10.63
2023-05-12T20:12:00.925Z,10.23
2023-05-12T20:14:27.594Z,10.82
2023-05-12T20:16:55.765Z,10.73
2023-05-12T20:19:22.447Z,10.85
2023-05-12T20:21:49.096Z,10.57
2023-05-12T20:24:15.718Z,11.07
2023-05-12T20:26:42.556Z,11.07
2023-05-12T20:29:09.197Z,11.18
2023-05-12T20:31:35.914Z,10.73
2023-05-12T20:34:02.695Z,10.68
2023-05-12T20:36:29.301Z,9.40
2023-05-12T20:38:56.164Z,10.45
2023-05-12T20:41:22.777Z,10.73
2023-05-12T20:43:49.526Z,10.13
2023-05-12T20:46:16.273Z,10.85
2023-05-12T20:48:43.034Z,10.80
2023-05-12T20:51:11.523Z,9.45
2023-05-12T20:53:38.357Z,10.15
2023-05-12T20:56:07.244Z,10.75
2023-05-12T20:58:34.000Z,10.85
2023-05-12T21:01:00.620Z,10.15
2023-05-12T21:03:27.506Z,10.93
2023-05-12T21:05:54.342Z,10.32
2023-05-12T21:08:20.992Z,10.07
2023-05-12T21:10:48.595Z,9.68
2023-05-12T21:13:15.345Z,8.88
2023-05-12T21:15:41.968Z,9.90
2023-05-12T21:18:08.979Z,10.00
2023-05-12T21:20:36.095Z,10.65
2023-05-12T21:23:03.278Z,9.68
2023-05-12T21:25:29.961Z,9.90
2023-05-12T21:27:56.625Z,9.98
2023-05-12T21:30:23.549Z,9.40
2023-05-12T21:32:50.472Z,10.10
2023-05-12T21:35:17.177Z,10.55
2023-05-12T21:37:43.868Z,10.40
2023-05-12T21:40:10.997Z,9.52
2023-05-12T21:42:37.788Z,9.35
2023-05-12T21:45:04.918Z,9.82
2023-05-12T21:47:31.559Z,9.60
2023-05-12T21:49:58.198Z,9.32
2023-05-12T21:52:24.994Z,9.73
2023-05-12T21:54:52.422Z,9.18
2023-05-12T21:57:19.149Z,9.93
2023-05-12T21:59:45.853Z,10.05
2023-05-12T22:02:13.170Z,9.52
2023-05-12T22:04:39.887Z,10.30
2023-05-12T22:07:07.690Z,9.90
2023-05-12T22:09:34.378Z,9.50
2023-05-12T22:12:01.053Z,10.20
2023-05-12T22:14:27.898Z,10.40
2023-05-12T22:16:55.808Z,10.02
2023-05-12T22:19:22.846Z,10.43
2023-05-12T22:21:49.707Z,10.40
2023-05-12T22:24:16.463Z,10.23
2023-05-12T22:26:43.072Z,10.80
2023-05-12T22:29:09.731Z,11.50
2023-05-12T22:31:36.571Z,10.93
2023-05-12T22:34:03.306Z,11.38
2023-05-12T22:36:30.363Z,11.32
2023-05-12T22:38:57.098Z,10.98
2023-05-12T22:41:25.388Z,10.48
2023-05-12T22:43:52.189Z,11.13
2023-05-12T22:46:18.812Z,10.07
2023-05-12T22:48:45.435Z,11.32
2023-05-12T22:51:12.064Z,11.10
2023-05-12T22:53:42.141Z,10.93
2023-05-12T22:56:09.159Z,12.57
2023-05-12T22:58:35.865Z,12.10
2023-05-12T23:01:02.590Z,11.60
2023-05-12T23:03:29.400Z,10.32
2023-05-12T23:05:56.227Z,10.23
2023-05-12T23:08:23.077Z,10.02
2023-05-12T23:10:49.840Z,9.88
2023-05-12T23:13:16.594Z,10.88
2023-05-12T23:15:43.269Z,10.43
2023-05-12T23:18:09.916Z,10.15
2023-05-12T23:20:36.559Z,9.27
2023-05-12T23:23:03.306Z,10.40
2023-05-12T23:25:29.996Z,9.13
2023-05-12T23:27:56.645Z,9.57
2023-05-12T23:30:23.531Z,9.07
2023-05-12T23:32:50.660Z,9.70
2023-05-12T23:35:17.483Z,9.00
2023-05-12T23:37:44.573Z,8.88
2023-05-12T23:40:11.426Z,9.10
2023-05-12T23:42:38.067Z,8.38
2023-05-12T23:45:05.415Z,8.23
2023-05-12T23:47:32.086Z,8.27
2023-05-12T23:49:58.785Z,7.45
2023-05-12T23:52:25.421Z,7.40
2023-05-12T23:54:52.084Z,6.90
2023-05-12T23:57:19.003Z,6.82
2023-05-12T23:59:45.637Z,6.93
